createdAt,value
2018-09-15T00:00:14.626Z,9.70
2018-09-15T00:02:42.963Z,8.90
2018-09-15T00:05:11.386Z,8.10
2018-09-15T00:07:39.755Z,9.13
2018-09-15T00:10:08.171Z,8.30
2018-09-15T00:12:36.533Z,8.50
2018-09-15T00:15:05.679Z,8.50
2018-09-15T00:17:34.049Z,8.43
2018-09-15T00:20:02.427Z,8.40
2018-09-15T00:22:30.843Z,6.90
2018-09-15T00:24:59.236Z,6.80
2018-09-15T00:27:27.629Z,7.63
2018-09-15T00:29:56.006Z,7.60
2018-09-15T00:32:24.388Z,7.67
2018-09-15T00:34:53.267Z,8.47
2018-09-15T00:37:21.723Z,8.63
2018-09-15T00:39:50.147Z,8.17
2018-09-15T00:42:18.482Z,7.20
2018-09-15T00:44:47.691Z,7.57
2018-09-15T00:47:16.085Z,7.47
2018-09-15T00:49:44.515Z,7.00
2018-09-15T00:52:12.935Z,7.70
2018-09-15T00:54:41.324Z,7.10
2018-09-15T00:57:09.651Z,7.27
2018-09-15T00:59:38.050Z,8.27
2018-09-15T01:02:06.534Z,9.57
2018-09-15T01:04:34.897Z,8.30
2018-09-15T01:07:03.287Z,7.80
2018-09-15T01:09:31.651Z,7.90
2018-09-15T01:11:59.982Z,7.93
2018-09-15T01:14:28.487Z,7.93
2018-09-15T01:16:56.945Z,7.53
2018-09-15T01:19:25.383Z,7.30
2018-09-15T01:21:53.720Z,7.93
2018-09-15T01:24:22.140Z,6.80
2018-09-15T01:26:50.523Z,7.90
2018-09-15T01:29:18.821Z,8.03
2018-09-15T01:31:47.215Z,6.87
2018-09-15T01:34:15.567Z,7.10
2018-09-15T01:36:43.904Z,6.67
2018-09-15T01:39:12.381Z,6.30
2018-09-15T01:41:40.793Z,7.80
2018-09-15T01:44:09.242Z,7.20
2018-09-15T01:46:37.654Z,7.07
2018-09-15T01:49:06.035Z,7.00
2018-09-15T01:51:34.439Z,6.90
2018-09-15T01:54:02.838Z,7.57
2018-09-15T01:56:31.243Z,7.87
2018-09-15T01:58:59.562Z,7.17
2018-09-15T02:01:27.937Z,6.93
2018-09-15T02:03:56.271Z,7.23
2018-09-15T02:06:24.688Z,7.47
2018-09-15T02:08:53.001Z,7.07
2018-09-15T02:11:21.364Z,7.33
2018-09-15T02:13:49.793Z,7.43
2018-09-15T02:16:18.110Z,6.67
2018-09-15T02:18:46.491Z,7.73
2018-09-15T02:21:14.932Z,7.20
2018-09-15T02:23:43.346Z,7.30
2018-09-15T02:26:11.696Z,7.60
2018-09-15T02:28:39.997Z,8.00
2018-09-15T02:31:08.317Z,7.57
2018-09-15T02:33:36.564Z,7.00
2018-09-15T02:36:04.862Z,7.60
2018-09-15T02:38:33.184Z,7.10
2018-09-15T02:41:01.452Z,8.53
2018-09-15T02:43:29.854Z,7.50
2018-09-15T02:45:58.130Z,8.03
2018-09-15T02:48:26.546Z,7.67
2018-09-15T02:50:54.853Z,8.00
2018-09-15T02:53:23.187Z,8.40
2018-09-15T02:55:51.618Z,8.87
2018-09-15T02:58:20.044Z,8.00
2018-09-15T03:00:48.588Z,7.40
2018-09-15T03:03:16.971Z,7.10
2018-09-15T03:05:45.312Z,8.43
2018-09-15T03:08:13.660Z,8.70
2018-09-15T03:10:42.137Z,8.70
2018-09-15T03:13:10.434Z,8.67
2018-09-15T03:15:38.865Z,7.20
2018-09-15T03:18:07.295Z,8.30
2018-09-15T03:20:35.649Z,8.33
2018-09-15T03:23:04.016Z,7.83
2018-09-15T03:25:32.419Z,7.23
2018-09-15T03:28:00.844Z,7.60
2018-09-15T03:30:29.259Z,7.80
2018-09-15T03:32:57.698Z,7.93
2018-09-15T03:35:26.130Z,7.60
2018-09-15T03:37:54.477Z,8.07
2018-09-15T03:40:22.886Z,7.07
2018-09-15T03:42:51.275Z,8.10
2018-09-15T03:45:19.664Z,8.10
2018-09-15T03:47:48.003Z,9.13
2018-09-15T03:50:16.344Z,8.23
2018-09-15T03:52:44.691Z,8.43
2018-09-15T03:55:13.038Z,9.07
2018-09-15T03:57:41.434Z,9.10
2018-09-15T04:00:09.913Z,8.60
2018-09-15T04:02:38.288Z,8.47
2018-09-15T04:05:06.743Z,8.67
2018-09-15T04:07:35.039Z,8.73
2018-09-15T04:10:03.446Z,9.10
2018-09-15T04:12:31.800Z,9.20
2018-09-15T04:15:00.152Z,10.43
2018-09-15T04:17:28.567Z,9.70
2018-09-15T04:19:56.915Z,9.43
2018-09-15T04:22:25.291Z,9.37
2018-09-15T04:24:53.685Z,9.70
2018-09-15T04:27:22.063Z,10.50
2018-09-15T04:29:50.444Z,10.33
2018-09-15T04:32:18.914Z,9.97
2018-09-15T04:34:47.321Z,10.97
2018-09-15T04:37:15.707Z,10.23
2018-09-15T04:39:44.114Z,11.20
2018-09-15T04:42:12.509Z,12.77
2018-09-15T04:44:40.883Z,13.40
2018-09-15T04:47:09.246Z,15.13
2018-09-15T04:49:37.640Z,14.10
2018-09-15T04:52:06.091Z,15.37
2018-09-15T04:54:34.481Z,17.30
2018-09-15T04:57:02.938Z,16.53
2018-09-15T04:59:31.377Z,16.30
2018-09-15T05:01:59.839Z,17.87
2018-09-15T05:04:28.215Z,19.37
2018-09-15T05:06:56.601Z,21.60
2018-09-15T05:09:24.953Z,21.30
2018-09-15T05:11:53.259Z,22.43
2018-09-15T05:14:21.663Z,20.00
2018-09-15T05:16:50.078Z,22.10
2018-09-15T05:19:18.398Z,23.47
2018-09-15T05:21:46.817Z,24.60
2018-09-15T05:24:15.257Z,23.57
2018-09-15T05:26:43.596Z,24.00
2018-09-15T05:29:12.155Z,24.73
2018-09-15T05:31:40.573Z,25.30
2018-09-15T05:34:08.960Z,26.67
2018-09-15T05:36:37.381Z,28.00
2018-09-15T05:39:09.108Z,27.37
2018-09-15T05:41:37.607Z,29.00
2018-09-15T05:44:06.001Z,28.93
2018-09-15T05:46:34.332Z,30.77
2018-09-15T05:49:02.672Z,29.33
2018-09-15T05:51:31.117Z,28.80
2018-09-15T05:54:00.091Z,29.93
2018-09-15T05:56:28.601Z,31.30
2018-09-15T05:58:57.006Z,29.67
2018-09-15T06:01:25.875Z,30.60
2018-09-15T06:03:54.411Z,29.07
2018-09-15T06:06:22.865Z,29.67
2018-09-15T06:08:51.395Z,30.10
2018-09-15T06:11:19.821Z,30.93
2018-09-15T06:13:48.277Z,29.17
2018-09-15T06:16:16.674Z,28.90
2018-09-15T06:18:45.124Z,29.90
2018-09-15T06:21:13.497Z,28.27
2018-09-15T06:23:41.912Z,27.90
2018-09-15T06:26:12.372Z,29.07
2018-09-15T06:28:40.865Z,28.33
2018-09-15T06:31:09.410Z,27.07
2018-09-15T06:33:38.504Z,28.70
2018-09-15T06:36:06.918Z,25.03
2018-09-15T06:38:35.434Z,29.03
2018-09-15T06:41:04.751Z,27.27
2018-09-15T06:43:33.149Z,27.53
2018-09-15T06:46:01.828Z,26.87
2018-09-15T06:48:30.401Z,28.23
2018-09-15T06:50:58.976Z,27.33
2018-09-15T06:53:27.371Z,27.50
2018-09-15T06:55:55.787Z,29.47
2018-09-15T06:58:24.208Z,28.37
2018-09-15T07:00:52.624Z,27.10
2018-09-15T07:03:21.085Z,27.40
2018-09-15T07:05:49.745Z,30.40
2018-09-15T07:08:18.235Z,26.27
2018-09-15T07:10:46.592Z,27.87
2018-09-15T07:13:14.995Z,27.77
2018-09-15T07:15:43.636Z,27.80
2018-09-15T07:18:12.041Z,25.47
2018-09-15T07:20:40.577Z,26.43
2018-09-15T07:23:08.958Z,24.70
2018-09-15T07:25:37.405Z,24.10
2018-09-15T07:28:06.500Z,25.03
2018-09-15T07:30:34.934Z,23.47
2018-09-15T07:33:03.447Z,23.53
2018-09-15T07:35:31.836Z,25.00
2018-09-15T07:38:00.591Z,21.57
2018-09-15T07:40:29.161Z,23.93
2018-09-15T07:42:57.611Z,23.30
2018-09-15T07:45:25.999Z,21.47
2018-09-15T07:47:54.326Z,23.40
2018-09-15T07:50:22.756Z,20.57
2018-09-15T07:52:51.092Z,22.97
2018-09-15T07:55:19.549Z,21.17
2018-09-15T07:57:48.246Z,20.70
2018-09-15T08:00:16.599Z,20.47
2018-09-15T08:02:45.047Z,20.20
2018-09-15T08:05:13.451Z,21.33
2018-09-15T08:07:41.829Z,20.80
2018-09-15T08:10:10.252Z,10.03
2018-09-15T08:12:38.657Z,14.97
2018-09-15T08:15:07.024Z,10.57
2018-09-15T08:17:35.385Z,9.70
2018-09-15T08:20:03.774Z,12.60
2018-09-15T08:22:32.276Z,12.93
2018-09-15T08:25:00.631Z,13.50
2018-09-15T08:27:28.984Z,14.40
2018-09-15T08:29:57.277Z,14.63
2018-09-15T08:32:25.657Z,14.87
2018-09-15T08:34:54.083Z,16.83
2018-09-15T08:37:22.431Z,15.60
2018-09-15T08:39:50.778Z,16.07
2018-09-15T08:42:19.201Z,15.10
2018-09-15T08:44:47.961Z,20.00
2018-09-15T08:47:16.409Z,20.37
2018-09-15T08:49:44.752Z,20.50
2018-09-15T08:52:13.196Z,21.50
2018-09-15T08:54:41.803Z,21.37
2018-09-15T08:57:10.152Z,20.20
2018-09-15T08:59:38.554Z,19.90
2018-09-15T09:02:11.199Z,22.27
2018-09-15T09:04:39.604Z,19.87
2018-09-15T09:07:07.991Z,18.30
2018-09-15T09:09:36.438Z,20.57
2018-09-15T09:12:04.889Z,20.77
2018-09-15T09:14:33.359Z,18.93
2018-09-15T09:17:01.800Z,18.33
2018-09-15T09:19:30.204Z,19.47
2018-09-15T09:21:58.707Z,18.20
2018-09-15T09:24:27.226Z,18.63
2018-09-15T09:26:55.642Z,18.90
2018-09-15T09:29:24.076Z,18.53
2018-09-15T09:31:52.782Z,17.70
2018-09-15T09:34:21.431Z,18.30
2018-09-15T09:36:49.827Z,17.13
2018-09-15T09:39:18.300Z,15.90
2018-09-15T09:41:46.688Z,16.93
2018-09-15T09:44:15.069Z,17.40
2018-09-15T09:46:43.763Z,15.97
2018-09-15T09:49:12.247Z,16.60
2018-09-15T09:51:40.653Z,16.57
2018-09-15T09:54:08.968Z,16.83
2018-09-15T09:56:37.353Z,16.10
2018-09-15T09:59:06.507Z,17.40
2018-09-15T10:01:40.348Z,17.10
2018-09-15T10:04:08.719Z,14.90
2018-09-15T10:06:37.131Z,14.57
2018-09-15T10:09:08.225Z,13.43
2018-09-15T10:11:36.900Z,13.73
2018-09-15T10:14:05.226Z,14.97
2018-09-15T10:16:33.695Z,15.00
2018-09-15T10:19:02.040Z,15.33
2018-09-15T10:21:30.522Z,16.37
2018-09-15T10:23:58.916Z,15.57
2018-09-15T10:26:27.348Z,14.40
2018-09-15T10:28:55.753Z,16.03
2018-09-15T10:31:24.143Z,15.73
2018-09-15T10:33:52.503Z,17.20
2018-09-15T10:36:20.848Z,16.13
2018-09-15T10:38:49.222Z,17.07
2018-09-15T10:41:17.689Z,14.77
2018-09-15T10:43:46.099Z,14.83
2018-09-15T10:46:14.465Z,14.10
2018-09-15T10:48:42.830Z,14.60
2018-09-15T10:51:11.231Z,13.77
2018-09-15T10:53:39.562Z,12.63
2018-09-15T10:56:07.982Z,16.77
2018-09-15T10:58:36.368Z,13.83
2018-09-15T11:01:04.770Z,12.90
2018-09-15T11:03:33.485Z,13.23
2018-09-15T11:06:01.932Z,13.80
2018-09-15T11:08:31.391Z,12.43
2018-09-15T11:10:59.820Z,10.50
2018-09-15T11:13:31.152Z,11.50
2018-09-15T11:15:59.606Z,14.23
2018-09-15T11:18:28.028Z,10.90
2018-09-15T11:20:56.388Z,11.33
2018-09-15T11:23:24.681Z,10.73
2018-09-15T11:25:53.199Z,10.53
2018-09-15T11:28:21.613Z,10.60
2018-09-15T11:30:50.004Z,9.60
2018-09-15T11:33:18.358Z,8.70
2018-09-15T11:35:46.767Z,9.67
2018-09-15T11:38:15.155Z,8.73
2018-09-15T11:40:43.465Z,8.33
2018-09-15T11:43:12.165Z,8.23
2018-09-15T11:45:40.578Z,7.67
2018-09-15T11:48:08.983Z,7.43
2018-09-15T11:50:37.379Z,7.53
2018-09-15T11:53:05.791Z,8.17
2018-09-15T11:55:34.231Z,8.33
2018-09-15T11:58:02.625Z,8.13
2018-09-15T12:00:33.217Z,8.87
2018-09-15T12:03:01.553Z,9.07
2018-09-15T12:05:29.927Z,8.10
2018-09-15T12:07:58.326Z,7.90
2018-09-15T12:10:26.707Z,8.30
2018-09-15T12:12:55.059Z,8.93
2018-09-15T12:15:23.517Z,9.70
2018-09-15T12:17:51.812Z,9.10
2018-09-15T12:20:20.185Z,8.70
2018-09-15T12:22:48.528Z,7.13
2018-09-15T12:25:16.955Z,8.40
2018-09-15T12:27:45.469Z,7.73
2018-09-15T12:30:13.820Z,7.63
2018-09-15T12:32:42.266Z,9.07
2018-09-15T12:35:10.695Z,8.20
2018-09-15T12:37:39.023Z,7.53
2018-09-15T12:40:07.650Z,7.90
2018-09-15T12:42:36.027Z,8.57
2018-09-15T12:45:04.513Z,9.80
2018-09-15T12:47:32.816Z,8.80
2018-09-15T12:50:01.199Z,9.30
2018-09-15T12:52:29.632Z,8.20
2018-09-15T12:54:57.986Z,8.20
2018-09-15T12:57:26.358Z,9.53
2018-09-15T12:59:54.703Z,8.70
2018-09-15T13:02:23.085Z,8.83
2018-09-15T13:04:51.419Z,7.80
2018-09-15T13:07:19.767Z,7.90
2018-09-15T13:09:48.143Z,7.60
2018-09-15T13:12:16.581Z,8.13
2018-09-15T13:14:44.999Z,8.00
2018-09-15T13:17:13.428Z,8.20
2018-09-15T13:19:41.852Z,8.40
2018-09-15T13:22:10.242Z,8.03
2018-09-15T13:24:38.603Z,8.20
2018-09-15T13:27:06.989Z,8.50
2018-09-15T13:29:35.327Z,7.50
2018-09-15T13:32:03.795Z,7.70
2018-09-15T13:34:32.097Z,7.33
2018-09-15T13:37:00.394Z,7.73
2018-09-15T13:39:28.836Z,7.40
2018-09-15T13:41:57.195Z,7.63
2018-09-15T13:44:25.588Z,7.50
2018-09-15T13:46:53.952Z,6.80
2018-09-15T13:49:22.471Z,6.60
2018-09-15T13:51:51.044Z,7.40
2018-09-15T13:54:19.437Z,6.17
2018-09-15T13:56:47.816Z,7.33
2018-09-15T13:59:16.132Z,7.00
2018-09-15T14:01:44.467Z,7.33
2018-09-15T14:04:12.897Z,8.20
2018-09-15T14:06:41.237Z,7.73
2018-09-15T14:09:11.053Z,7.23
2018-09-15T14:11:39.501Z,11.20
2018-09-15T14:14:07.873Z,11.07
2018-09-15T14:16:36.609Z,8.80
2018-09-15T14:19:04.955Z,7.20
2018-09-15T14:21:33.461Z,7.97
2018-09-15T14:24:01.871Z,7.80
2018-09-15T14:26:30.327Z,7.30
2018-09-15T14:28:58.793Z,9.17
2018-09-15T14:31:27.195Z,7.60
2018-09-15T14:33:55.568Z,7.73
2018-09-15T14:36:23.946Z,8.60
2018-09-15T14:38:52.504Z,8.10
2018-09-15T14:41:20.889Z,7.97
2018-09-15T14:43:49.212Z,7.03
2018-09-15T14:46:17.538Z,7.30
2018-09-15T14:48:45.975Z,8.70
2018-09-15T14:51:14.391Z,7.70
2018-09-15T14:53:42.820Z,9.07
2018-09-15T14:56:11.239Z,7.40
2018-09-15T14:58:39.625Z,6.90
2018-09-15T15:01:07.975Z,7.27
2018-09-15T15:03:36.769Z,7.00
2018-09-15T15:06:05.148Z,7.03
2018-09-15T15:08:33.511Z,7.47
2018-09-15T15:11:01.911Z,8.10
2018-09-15T15:13:30.247Z,8.13
2018-09-15T15:15:58.569Z,7.27
2018-09-15T15:18:26.942Z,6.83
2018-09-15T15:20:55.327Z,6.90
2018-09-15T15:23:23.693Z,6.60
2018-09-15T15:25:52.102Z,7.10
2018-09-15T15:28:21.668Z,7.27
2018-09-15T15:30:50.053Z,7.43
2018-09-15T15:33:18.407Z,6.63
2018-09-15T15:35:46.857Z,7.37
2018-09-15T15:38:15.227Z,7.20
2018-09-15T15:40:43.727Z,6.80
2018-09-15T15:43:16.075Z,6.83
2018-09-15T15:45:45.009Z,7.67
2018-09-15T15:48:13.395Z,7.90
2018-09-15T15:50:41.777Z,7.63
2018-09-15T15:53:10.286Z,7.63
2018-09-15T15:55:38.662Z,7.67
2018-09-15T15:58:07.115Z,7.47
2018-09-15T16:00:35.478Z,7.50
2018-09-15T16:03:03.931Z,8.30
2018-09-15T16:05:32.241Z,7.70
2018-09-15T16:08:00.643Z,7.00
2018-09-15T16:10:28.976Z,6.83
2018-09-15T16:12:57.363Z,7.00
2018-09-15T16:15:25.749Z,7.53
2018-09-15T16:17:54.124Z,7.67
2018-09-15T16:20:22.476Z,6.70
2018-09-15T16:22:50.811Z,6.43
2018-09-15T16:25:19.291Z,6.00
2018-09-15T16:27:47.634Z,6.37
2018-09-15T16:30:16.056Z,7.67
2018-09-15T16:32:44.563Z,7.00
2018-09-15T16:35:13.087Z,7.53
2018-09-15T16:37:41.526Z,6.93
2018-09-15T16:40:09.932Z,7.57
2018-09-15T16:42:38.576Z,6.30
2018-09-15T16:45:07.221Z,6.40
2018-09-15T16:47:35.641Z,6.70
2018-09-15T16:50:04.061Z,6.10
2018-09-15T16:52:32.474Z,6.67
2018-09-15T16:55:00.850Z,6.87
2018-09-15T16:57:29.260Z,6.70
2018-09-15T16:59:57.660Z,6.30
2018-09-15T17:02:26.109Z,6.20
2018-09-15T17:04:54.663Z,6.13
2018-09-15T17:07:23.033Z,6.33
2018-09-15T17:09:51.391Z,7.77
2018-09-15T17:12:19.793Z,6.90
2018-09-15T17:14:48.129Z,7.00
2018-09-15T17:17:16.492Z,6.60
2018-09-15T17:19:44.879Z,7.23
2018-09-15T17:22:13.227Z,7.20
2018-09-15T17:24:41.677Z,6.63
2018-09-15T17:27:10.021Z,7.27
2018-09-15T17:29:38.444Z,8.17
2018-09-15T17:32:06.859Z,10.10
2018-09-15T17:34:35.406Z,7.73
2018-09-15T17:37:03.790Z,7.80
2018-09-15T17:39:32.157Z,7.73
2018-09-15T17:42:00.589Z,6.90
2018-09-15T17:44:28.981Z,8.17
2018-09-15T17:46:57.307Z,7.63
2018-09-15T17:49:25.660Z,8.00
2018-09-15T17:51:54.022Z,7.20
2018-09-15T17:54:22.439Z,6.83
2018-09-15T17:56:50.903Z,7.00
2018-09-15T17:59:19.233Z,7.20
2018-09-15T18:01:47.688Z,6.97
2018-09-15T18:04:16.127Z,6.83
2018-09-15T18:06:44.473Z,6.80
2018-09-15T18:09:12.812Z,6.53
2018-09-15T18:11:41.193Z,6.70
2018-09-15T18:14:09.535Z,7.60
2018-09-15T18:16:37.911Z,6.90
2018-09-15T18:19:06.312Z,6.83
2018-09-15T18:21:34.641Z,7.17
2018-09-15T18:24:03.009Z,6.30
2018-09-15T18:26:31.425Z,6.87
2018-09-15T18:28:59.971Z,9.00
2018-09-15T18:31:28.329Z,6.90
2018-09-15T18:33:56.818Z,9.00
2018-09-15T18:36:25.232Z,6.10
2018-09-15T18:38:55.307Z,7.23
2018-09-15T18:41:23.850Z,6.67
2018-09-15T18:43:52.173Z,7.50
2018-09-15T18:46:20.502Z,7.30
2018-09-15T18:48:48.965Z,6.30
2018-09-15T18:51:17.432Z,6.87
2018-09-15T18:53:45.923Z,6.47
2018-09-15T18:56:14.274Z,6.70
2018-09-15T18:58:42.663Z,6.17
2018-09-15T19:01:11.037Z,6.50
2018-09-15T19:03:39.401Z,5.60
2018-09-15T19:06:07.819Z,7.20
2018-09-15T19:08:36.088Z,7.07
2018-09-15T19:11:04.433Z,7.37
2018-09-15T19:13:33.426Z,8.10
2018-09-15T19:16:01.804Z,7.10
2018-09-15T19:18:30.121Z,7.03
2018-09-15T19:20:58.482Z,7.30
2018-09-15T19:23:27.255Z,7.87
2018-09-15T19:25:55.610Z,7.67
2018-09-15T19:28:23.958Z,7.50
2018-09-15T19:30:52.724Z,8.10
2018-09-15T19:33:21.163Z,7.77
2018-09-15T19:35:49.599Z,8.00
2018-09-15T19:38:17.977Z,8.97
2018-09-15T19:40:46.404Z,13.57
2018-09-15T19:43:14.786Z,9.87
2018-09-15T19:45:43.132Z,8.50
2018-09-15T19:48:11.511Z,9.80
2018-09-15T19:50:39.976Z,9.63
2018-09-15T19:53:08.359Z,9.03
2018-09-15T19:55:36.696Z,10.20
2018-09-15T19:58:05.395Z,10.70
2018-09-15T20:00:33.777Z,10.27
2018-09-15T20:03:02.242Z,11.47
2018-09-15T20:05:30.646Z,10.50
2018-09-15T20:08:00.113Z,11.07
2018-09-15T20:10:28.933Z,11.73
2018-09-15T20:12:57.470Z,10.80
2018-09-15T20:15:26.544Z,10.83
2018-09-15T20:17:54.305Z,11.20
2018-09-15T20:20:22.524Z,11.40
2018-09-15T20:22:52.410Z,11.70
2018-09-15T20:25:20.899Z,11.60
2018-09-15T20:27:49.283Z,11.87
2018-09-15T20:30:17.682Z,13.07
2018-09-15T20:32:46.321Z,12.17
2018-09-15T20:35:14.875Z,12.17
2018-09-15T20:37:43.249Z,11.33
2018-09-15T20:40:11.663Z,11.57
2018-09-15T20:42:40.525Z,11.67
2018-09-15T20:45:09.288Z,12.50
2018-09-15T20:47:38.067Z,10.90
2018-09-15T20:50:07.241Z,12.07
2018-09-15T20:52:35.635Z,12.17
2018-09-15T20:55:04.200Z,12.73
2018-09-15T20:57:32.551Z,13.60
2018-09-15T21:00:00.877Z,12.60
2018-09-15T21:02:29.312Z,12.83
2018-09-15T21:04:57.711Z,12.73
2018-09-15T21:07:26.258Z,11.80
2018-09-15T21:09:54.602Z,12.77
2018-09-15T21:12:23.058Z,13.73
2018-09-15T21:14:51.347Z,14.27
2018-09-15T21:17:19.790Z,11.57
2018-09-15T21:19:48.208Z,13.30
2018-09-15T21:22:16.608Z,13.70
2018-09-15T21:24:45.081Z,13.20
2018-09-15T21:27:13.435Z,12.70
2018-09-15T21:29:41.788Z,12.47
2018-09-15T21:32:10.118Z,12.07
2018-09-15T21:34:38.717Z,12.50
2018-09-15T21:37:07.368Z,12.80
2018-09-15T21:39:35.753Z,12.83
2018-09-15T21:42:04.137Z,13.50
2018-09-15T21:44:32.587Z,13.17
2018-09-15T21:47:00.936Z,12.17
2018-09-15T21:49:29.285Z,14.13
2018-09-15T21:51:57.792Z,13.37
2018-09-15T21:54:26.145Z,14.07
2018-09-15T21:56:54.540Z,13.97
2018-09-15T21:59:22.877Z,14.70
2018-09-15T22:01:51.247Z,14.77
2018-09-15T22:04:21.444Z,15.17
2018-09-15T22:06:51.949Z,13.80
2018-09-15T22:09:20.384Z,14.83
2018-09-15T22:11:49.132Z,14.90
2018-09-15T22:14:17.554Z,14.90
2018-09-15T22:16:45.976Z,14.00
2018-09-15T22:19:14.442Z,14.80
2018-09-15T22:21:43.046Z,14.07
2018-09-15T22:24:11.542Z,14.17
2018-09-15T22:26:39.941Z,13.97
2018-09-15T22:29:08.392Z,13.30
2018-09-15T22:31:36.798Z,14.50
2018-09-15T22:34:05.249Z,14.60
2018-09-15T22:36:33.696Z,15.87
2018-09-15T22:39:02.224Z,15.27
2018-09-15T22:41:30.941Z,13.80
2018-09-15T22:43:59.333Z,15.00
2018-09-15T22:46:27.889Z,15.03
2018-09-15T22:48:56.411Z,13.97
2018-09-15T22:51:24.779Z,14.80
2018-09-15T22:53:53.222Z,15.27
2018-09-15T22:56:21.689Z,14.47
2018-09-15T22:58:49.983Z,13.67
2018-09-15T23:01:18.349Z,14.60
2018-09-15T23:03:46.750Z,14.17
2018-09-15T23:06:15.303Z,15.20
2018-09-15T23:08:44.001Z,14.73
2018-09-15T23:11:12.892Z,14.17
2018-09-15T23:13:41.479Z,14.23
2018-09-15T23:16:09.977Z,14.63
2018-09-15T23:18:38.567Z,13.50
2018-09-15T23:21:07.565Z,14.90
2018-09-15T23:23:36.045Z,16.33
2018-09-15T23:26:04.382Z,15.03
2018-09-15T23:28:32.766Z,14.60
2018-09-15T23:31:01.130Z,14.47
2018-09-15T23:33:29.531Z,15.87
2018-09-15T23:35:57.943Z,16.17
2018-09-15T23:38:26.382Z,16.47
2018-09-15T23:40:54.695Z,17.33
2018-09-15T23:43:23.079Z,16.80
2018-09-15T23:45:51.393Z,16.10
2018-09-15T23:48:19.876Z,16.10
2018-09-15T23:50:48.397Z,16.77
2018-09-15T23:53:16.834Z,16.70
2018-09-15T23:55:45.149Z,17.00
2018-09-15T23:58:13.516Z,17.63
